sensor_id;sensor_type;location;lat;lon;timestamp;pressure;altitude;pressure_sealevel;temperature;humidity
35519;BME280;21627;48.216;16.482;2022-11-15T00:01:17;100108.91;;;6.23;100.00
35519;BME280;21627;48.216;16.482;2022-11-15T00:03:45;100089.97;;;6.18;100.00
35519;BME280;21627;48.216;16.482;2022-11-15T00:06:13;100105.47;;;6.23;100.00
35519;BME280;21627;48.216;16.482;2022-11-15T00:08:42;100099.47;;;6.22;100.00
35519;BME280;21627;48.216;16.482;2022-11-15T00:11:11;100097.78;;;6.23;100.00
35519;BME280;21627;48.216;16.482;2022-11-15T00:13:40;100096.03;;;6.22;100.00
35519;BME280;21627;48.216;16.482;2022-11-15T00:16:08;100098.69;;;6.25;100.00
35519;BME280;21627;48.216;16.482;2022-11-15T00:18:36;100091.94;;;6.30;100.00
35519;BME280;21627;48.216;16.482;2022-11-15T00:21:16;100087.50;;;6.23;100.00
35519;BME280;21627;48.216;16.482;2022-11-15T00:23:43;100102.28;;;6.33;100.00
35519;BME280;21627;48.216;16.482;2022-11-15T00:26:13;100090.19;;;6.29;100.00
35519;BME280;21627;48.216;16.482;2022-11-15T00:28:41;100085.91;;;6.29;100.00
35519;BME280;21627;48.216;16.482;2022-11-15T00:31:13;100085.97;;;6.31;100.00
35519;BME280;21627;48.216;16.482;2022-11-15T00:33:43;100088.47;;;6.28;100.00
35519;BME280;21627;48.216;16.482;2022-11-15T00:36:11;100080.78;;;6.29;100.00
35519;BME280;21627;48.216;16.482;2022-11-15T00:38:40;100074.03;;;6.33;100.00
35519;BME280;21627;48.216;16.482;2022-11-15T00:41:08;100084.25;;;6.32;100.00
35519;BME280;21627;48.216;16.482;2022-11-15T00:43:36;100066.19;;;6.27;100.00
35519;BME280;21627;48.216;16.482;2022-11-15T00:46:04;100071.41;;;6.32;100.00
35519;BME280;21627;48.216;16.482;2022-11-15T00:48:31;100066.06;;;6.21;100.00
35519;BME280;21627;48.216;16.482;2022-11-15T00:50:59;100071.19;;;6.21;100.00
35519;BME280;21627;48.216;16.482;2022-11-15T00:53:26;100061.81;;;6.23;100.00
35519;BME280;21627;48.216;16.482;2022-11-15T00:55:54;100060.16;;;6.25;100.00
35519;BME280;21627;48.216;16.482;2022-11-15T00:58:21;100062.81;;;6.29;100.00
35519;BME280;21627;48.216;16.482;2022-11-15T01:00:48;100053.50;;;6.33;100.00
35519;BME280;21627;48.216;16.482;2022-11-15T01:03:15;100043.88;;;6.24;100.00
35519;BME280;21627;48.216;16.482;2022-11-15T01:05:42;100058.63;;;6.33;100.00
35519;BME280;21627;48.216;16.482;2022-11-15T01:08:16;100056.88;;;6.32;100.00
35519;BME280;21627;48.216;16.482;2022-11-15T01:10:43;100041.41;;;6.27;100.00
35519;BME280;21627;48.216;16.482;2022-11-15T01:13:10;100052.59;;;6.31;100.00
35519;BME280;21627;48.216;16.482;2022-11-15T01:15:40;100040.53;;;6.28;100.00
35519;BME280;21627;48.216;16.482;2022-11-15T01:18:08;100037.13;;;6.29;100.00
35519;BME280;21627;48.216;16.482;2022-11-15T01:20:42;100049.22;;;6.34;100.00
35519;BME280;21627;48.216;16.482;2022-11-15T01:23:10;100036.59;;;6.43;100.00
35519;BME280;21627;48.216;16.482;2022-11-15T01:25:37;100039.00;;;6.35;100.00
35519;BME280;21627;48.216;16.482;2022-11-15T01:28:04;100038.09;;;6.33;100.00
35519;BME280;21627;48.216;16.482;2022-11-15T01:30:31;100027.66;;;6.27;100.00
35519;BME280;21627;48.216;16.482;2022-11-15T01:32:58;100037.13;;;6.29;100.00
35519;BME280;21627;48.216;16.482;2022-11-15T01:35:25;100031.94;;;6.26;100.00
35519;BME280;21627;48.216;16.482;2022-11-15T01:37:52;100030.22;;;6.27;100.00
35519;BME280;21627;48.216;16.482;2022-11-15T01:40:19;100034.50;;;6.26;100.00
35519;BME280;21627;48.216;16.482;2022-11-15T01:42:47;100040.59;;;6.30;100.00
35519;BME280;21627;48.216;16.482;2022-11-15T01:45:15;100034.44;;;6.23;100.00
35519;BME280;21627;48.216;16.482;2022-11-15T01:48:00;100015.44;;;6.15;100.00
35519;BME280;21627;48.216;16.482;2022-11-15T01:50:30;100033.69;;;6.27;100.00
35519;BME280;21627;48.216;16.482;2022-11-15T01:52:59;100013.69;;;6.13;100.00
35519;BME280;21627;48.216;16.482;2022-11-15T01:55:28;100022.53;;;6.27;100.00
35519;BME280;21627;48.216;16.482;2022-11-15T01:57:59;100030.94;;;6.20;100.00
35519;BME280;21627;48.216;16.482;2022-11-15T02:00:29;100022.25;;;6.13;100.00
35519;BME280;21627;48.216;16.482;2022-11-15T02:02:57;100031.94;;;6.25;100.00
35519;BME280;21627;48.216;16.482;2022-11-15T02:05:24;100027.38;;;6.15;100.00
35519;BME280;21627;48.216;16.482;2022-11-15T02:07:52;100024.06;;;6.19;100.00
35519;BME280;21627;48.216;16.482;2022-11-15T02:10:22;100024.91;;;6.18;100.00
35519;BME280;21627;48.216;16.482;2022-11-15T02:12:50;100030.75;;;6.11;100.00
35519;BME280;21627;48.216;16.482;2022-11-15T02:15:33;100027.38;;;6.15;100.00
35519;BME280;21627;48.216;16.482;2022-11-15T02:18:18;100027.31;;;6.12;100.00
35519;BME280;21627;48.216;16.482;2022-11-15T02:27:38;100017.06;;;6.12;100.00
35519;BME280;21627;48.216;16.482;2022-11-15T02:30:34;100024.81;;;6.15;100.00
35519;BME280;21627;48.216;16.482;2022-11-15T02:34:17;100022.25;;;6.15;100.00
35519;BME280;21627;48.216;16.482;2022-11-15T02:39:49;100026.53;;;6.14;100.00
35519;BME280;21627;48.216;16.482;2022-11-15T02:42:26;100007.47;;;6.03;100.00
35519;BME280;21627;48.216;16.482;2022-11-15T02:45:23;100039.41;;;6.16;100.00
35519;BME280;21627;48.216;16.482;2022-11-15T02:47:54;100026.59;;;6.17;100.00
35519;BME280;21627;48.216;16.482;2022-11-15T02:50:27;100027.31;;;6.12;100.00
35519;BME280;21627;48.216;16.482;2022-11-15T02:52:55;100030.06;;;6.19;100.00
35519;BME280;21627;48.216;16.482;2022-11-15T02:55:32;100033.41;;;6.15;100.00
35519;BME280;21627;48.216;16.482;2022-11-15T03:01:00;100022.25;;;6.15;100.00
35519;BME280;21627;48.216;16.482;2022-11-15T03:06:47;100018.72;;;6.10;100.00
35519;BME280;21627;48.216;16.482;2022-11-15T03:13:02;100022.38;;;6.19;100.00
35519;BME280;21627;48.216;16.482;2022-11-15T03:15:40;99999.09;;;6.12;100.00
35519;BME280;21627;48.216;16.482;2022-11-15T03:18:55;100011.22;;;6.19;100.00
35519;BME280;21627;48.216;16.482;2022-11-15T03:21:15;100001.81;;;6.18;100.00
35519;BME280;21627;48.216;16.482;2022-11-15T03:23:47;100007.88;;;6.21;100.00
35519;BME280;21627;48.216;16.482;2022-11-15T03:26:16;99995.72;;;6.14;100.00
35519;BME280;21627;48.216;16.482;2022-11-15T03:29:14;99994.06;;;6.16;100.00
35519;BME280;21627;48.216;16.482;2022-11-15T03:31:47;100004.44;;;6.21;100.00
35519;BME280;21627;48.216;16.482;2022-11-15T03:34:29;100006.19;;;6.23;100.00
35519;BME280;21627;48.216;16.482;2022-11-15T03:36:56;99993.22;;;6.17;100.00
35519;BME280;21627;48.216;16.482;2022-11-15T03:39:24;100002.72;;;6.21;100.00
35519;BME280;21627;48.216;16.482;2022-11-15T03:42:04;100005.34;;;6.24;100.00
35519;BME280;21627;48.216;16.482;2022-11-15T03:47:36;99988.19;;;6.22;100.00
35519;BME280;21627;48.216;16.482;2022-11-15T03:50:15;99986.53;;;6.24;100.00
35519;BME280;21627;48.216;16.482;2022-11-15T03:52:46;99992.50;;;6.23;100.00
35519;BME280;21627;48.216;16.482;2022-11-15T03:55:20;99971.81;;;6.15;100.00
35519;BME280;21627;48.216;16.482;2022-11-15T03:57:51;99957.22;;;6.14;100.00
35519;BME280;21627;48.216;16.482;2022-11-15T04:00:20;99951.06;;;6.06;100.00
35519;BME280;21627;48.216;16.482;2022-11-15T04:02:48;99968.44;;;6.19;100.00
35519;BME280;21627;48.216;16.482;2022-11-15T04:05:15;99971.06;;;6.21;100.00
35519;BME280;21627;48.216;16.482;2022-11-15T04:07:42;99952.03;;;6.11;100.00
35519;BME280;21627;48.216;16.482;2022-11-15T04:10:11;99957.38;;;6.20;100.00
35519;BME280;21627;48.216;16.482;2022-11-15T04:12:42;99960.75;;;6.19;100.00
35519;BME280;21627;48.216;16.482;2022-11-15T04:15:19;99955.59;;;6.19;100.00
35519;BME280;21627;48.216;16.482;2022-11-15T04:20:21;99954.00;;;6.24;100.00
35519;BME280;21627;48.216;16.482;2022-11-15T04:23:14;99954.84;;;6.23;100.00
35519;BME280;21627;48.216;16.482;2022-11-15T04:26:09;99946.19;;;6.20;100.00
35519;BME280;21627;48.216;16.482;2022-11-15T04:28:40;99948.00;;;6.22;100.00
35519;BME280;21627;48.216;16.482;2022-11-15T04:31:27;99944.53;;;6.22;100.00
35519;BME280;21627;48.216;16.482;2022-11-15T04:33:55;99946.25;;;6.21;100.00
35519;BME280;21627;48.216;16.482;2022-11-15T04:36:22;99953.94;;;6.21;100.00
35519;BME280;21627;48.216;16.482;2022-11-15T04:39:08;99953.03;;;6.19;100.00
35519;BME280;21627;48.216;16.482;2022-11-15T04:41:35;99943.56;;;6.15;100.00
35519;BME280;21627;48.216;16.482;2022-11-15T04:44:02;99932.38;;;6.13;100.00
35519;BME280;21627;48.216;16.482;2022-11-15T04:46:29;99948.75;;;6.18;100.00
35519;BME280;21627;48.216;16.482;2022-11-15T04:48:57;99942.72;;;6.16;100.00
35519;BME280;21627;48.216;16.482;2022-11-15T04:51:26;99931.44;;;6.08;100.00
35519;BME280;21627;48.216;16.482;2022-11-15T04:53:53;99934.97;;;6.15;100.00
35519;BME280;21627;48.216;16.482;2022-11-15T04:56:20;99932.44;;;6.16;100.00
35519;BME280;21627;48.216;16.482;2022-11-15T04:58:50;99930.72;;;6.15;100.00
35519;BME280;21627;48.216;16.482;2022-11-15T05:01:17;99927.25;;;6.15;100.00
35519;BME280;21627;48.216;16.482;2022-11-15T05:03:45;99932.44;;;6.16;100.00
35519;BME280;21627;48.216;16.482;2022-11-15T05:06:31;99906.47;;;6.01;100.00
35519;BME280;21627;48.216;16.482;2022-11-15T05:08:58;99922.06;;;6.12;100.00
35519;BME280;21627;48.216;16.482;2022-11-15T05:11:25;99931.53;;;6.13;100.00
35519;BME280;21627;48.216;16.482;2022-11-15T05:13:54;99921.09;;;6.05;100.00
35519;BME280;21627;48.216;16.482;2022-11-15T05:16:22;99914.16;;;6.01;100.00
35519;BME280;21627;48.216;16.482;2022-11-15T05:18:53;99919.41;;;6.07;100.00
35519;BME280;21627;48.216;16.482;2022-11-15T05:21:21;99915.16;;;6.07;100.00
35519;BME280;21627;48.216;16.482;2022-11-15T05:23:48;99919.50;;;6.12;100.00
35519;BME280;21627;48.216;16.482;2022-11-15T05:26:17;99919.44;;;6.09;100.00
35519;BME280;21627;48.216;16.482;2022-11-15T05:28:45;99900.47;;;6.02;100.00
35519;BME280;21627;48.216;16.482;2022-11-15T05:31:15;99916.94;;;6.10;100.00
35519;BME280;21627;48.216;16.482;2022-11-15T05:33:43;99898.66;;;5.96;100.00
35519;BME280;21627;48.216;16.482;2022-11-15T05:38:54;99904.06;;;6.09;100.00
35519;BME280;21627;48.216;16.482;2022-11-15T05:41:34;99913.47;;;6.10;100.00
35519;BME280;21627;48.216;16.482;2022-11-15T05:44:04;99899.66;;;6.03;100.00
35519;BME280;21627;48.216;16.482;2022-11-15T05:46:33;99903.19;;;6.08;100.00
35519;BME280;21627;48.216;16.482;2022-11-15T05:49:01;99898.97;;;6.12;100.00
35519;BME280;21627;48.216;16.482;2022-11-15T05:51:29;99886.78;;;6.01;100.00
35519;BME280;21627;48.216;16.482;2022-11-15T05:53:58;99897.91;;;6.02;100.00
35519;BME280;21627;48.216;16.482;2022-11-15T05:56:25;99909.19;;;6.09;100.00
35519;BME280;21627;48.216;16.482;2022-11-15T05:58:57;99904.97;;;6.11;100.00
35519;BME280;21627;48.216;16.482;2022-11-15T06:01:26;99885.97;;;6.02;100.00
35519;BME280;21627;48.216;16.482;2022-11-15T06:03:54;99896.44;;;6.13;100.00
35519;BME280;21627;48.216;16.482;2022-11-15T06:06:21;99903.34;;;6.17;100.00
35519;BME280;21627;48.216;16.482;2022-11-15T06:08:48;99898.25;;;6.19;100.00
35519;BME280;21627;48.216;16.482;2022-11-15T06:11:15;99886.09;;;6.09;100.00
35519;BME280;21627;48.216;16.482;2022-11-15T06:13:43;99881.72;;;6.04;100.00
35519;BME280;21627;48.216;16.482;2022-11-15T06:16:10;99905.06;;;6.17;100.00
35519;BME280;21627;48.216;16.482;2022-11-15T06:18:37;99892.06;;;6.07;100.00
35519;BME280;21627;48.216;16.482;2022-11-15T06:21:05;99906.69;;;6.12;100.00
35519;BME280;21627;48.216;16.482;2022-11-15T06:23:34;99921.25;;;6.13;100.00
35519;BME280;21627;48.216;16.482;2022-11-15T06:26:02;99921.16;;;6.08;100.00
35519;BME280;21627;48.216;16.482;2022-11-15T06:28:31;99903.94;;;6.04;100.00
35519;BME280;21627;48.216;16.482;2022-11-15T06:31:07;99899.53;;;5.97;100.00
35519;BME280;21627;48.216;16.482;2022-11-15T06:33:35;99903.84;;;5.98;100.00
35519;BME280;21627;48.216;16.482;2022-11-15T06:36:08;99897.06;;;6.01;100.00
35519;BME280;21627;48.216;16.482;2022-11-15T06:38:46;99915.97;;;6.05;100.00
35519;BME280;21627;48.216;16.482;2022-11-15T06:41:14;99907.31;;;6.01;100.00
35519;BME280;21627;48.216;16.482;2022-11-15T06:43:41;99912.50;;;6.04;100.00
35519;BME280;21627;48.216;16.482;2022-11-15T06:46:09;99919.41;;;6.05;100.00
35519;BME280;21627;48.216;16.482;2022-11-15T06:48:37;99918.50;;;6.03;100.00
35519;BME280;21627;48.216;16.482;2022-11-15T06:51:05;99905.50;;;5.96;100.00
35519;BME280;21627;48.216;16.482;2022-11-15T06:53:32;99927.06;;;6.04;100.00
35519;BME280;21627;48.216;16.482;2022-11-15T06:56:02;99926.25;;;6.05;100.00
35519;BME280;21627;48.216;16.482;2022-11-15T06:58:30;99926.25;;;6.05;100.00
35519;BME280;21627;48.216;16.482;2022-11-15T07:01:07;99927.19;;;6.10;100.00
35519;BME280;21627;48.216;16.482;2022-11-15T07:03:36;99916.88;;;6.09;100.00
35519;BME280;21627;48.216;16.482;2022-11-15T07:06:04;99927.25;;;6.13;100.00
35519;BME280;21627;48.216;16.482;2022-11-15T07:08:34;99928.13;;;6.14;100.00
35519;BME280;21627;48.216;16.482;2022-11-15T07:11:06;99914.41;;;6.13;100.00
35519;BME280;21627;48.216;16.482;2022-11-15T07:13:35;99929.06;;;6.19;100.00
35519;BME280;21627;48.216;16.482;2022-11-15T07:16:08;99904.97;;;6.11;100.00
35519;BME280;21627;48.216;16.482;2022-11-15T07:18:40;99907.53;;;6.11;100.00
35519;BME280;21627;48.216;16.482;2022-11-15T07:21:10;99917.97;;;6.20;100.00
35519;BME280;21627;48.216;16.482;2022-11-15T07:23:38;99915.38;;;6.18;100.00
35519;BME280;21627;48.216;16.482;2022-11-15T07:26:07;99911.06;;;6.17;100.00
35519;BME280;21627;48.216;16.482;2022-11-15T07:28:35;99912.91;;;6.23;100.00
35519;BME280;21627;48.216;16.482;2022-11-15T07:31:05;99906.84;;;6.19;100.00
35519;BME280;21627;48.216;16.482;2022-11-15T07:33:33;99908.63;;;6.23;100.00
35519;BME280;21627;48.216;16.482;2022-11-15T07:36:05;99899.97;;;6.20;100.00
35519;BME280;21627;48.216;16.482;2022-11-15T07:38:34;99903.50;;;6.23;100.00
35519;BME280;21627;48.216;16.482;2022-11-15T07:41:09;99894.16;;;6.27;100.00
35519;BME280;21627;48.216;16.482;2022-11-15T07:43:36;99875.19;;;6.20;100.00
35519;BME280;21627;48.216;16.482;2022-11-15T07:46:07;99894.22;;;6.30;100.00
35519;BME280;21627;48.216;16.482;2022-11-15T07:48:39;99898.47;;;6.29;100.00
35519;BME280;21627;48.216;16.482;2022-11-15T07:51:13;99899.41;;;6.33;100.00
35519;BME280;21627;48.216;16.482;2022-11-15T07:53:42;99896.03;;;6.36;100.00
35519;BME280;21627;48.216;16.482;2022-11-15T07:56:10;99889.97;;;6.32;100.00
35519;BME280;21627;48.216;16.482;2022-11-15T07:58:37;99890.00;;;6.34;100.00
35519;BME280;21627;48.216;16.482;2022-11-15T08:01:09;99886.53;;;6.32;100.00
35519;BME280;21627;48.216;16.482;2022-11-15T08:03:37;99893.63;;;6.43;100.00
35519;BME280;21627;48.216;16.482;2022-11-15T08:06:05;99876.41;;;6.38;100.00
35519;BME280;21627;48.216;16.482;2022-11-15T08:08:32;99894.47;;;6.44;100.00
35519;BME280;21627;48.216;16.482;2022-11-15T08:10:59;99884.19;;;6.44;100.00
35519;BME280;21627;48.216;16.482;2022-11-15T08:13:27;99889.38;;;6.47;100.00
35519;BME280;21627;48.216;16.482;2022-11-15T08:16:01;99878.22;;;6.43;100.00
35519;BME280;21627;48.216;16.482;2022-11-15T08:18:29;99880.00;;;6.49;100.00
35519;BME280;21627;48.216;16.482;2022-11-15T08:21:01;99875.69;;;6.46;100.00
35519;BME280;21627;48.216;16.482;2022-11-15T08:23:28;99888.72;;;6.57;100.00
35519;BME280;21627;48.216;16.482;2022-11-15T08:26:03;99877.59;;;6.57;100.00
35519;BME280;21627;48.216;16.482;2022-11-15T08:28:32;99878.53;;;6.60;100.00
35519;BME280;21627;48.216;16.482;2022-11-15T08:30:59;99871.53;;;6.55;100.00
35519;BME280;21627;48.216;16.482;2022-11-15T08:33:30;99875.16;;;6.64;100.00
35519;BME280;21627;48.216;16.482;2022-11-15T08:35:59;99877.72;;;6.63;100.00
35519;BME280;21627;48.216;16.482;2022-11-15T08:38:27;99869.13;;;6.62;100.00
35519;BME280;21627;48.216;16.482;2022-11-15T08:41:05;99872.63;;;6.66;100.00
35519;BME280;21627;48.216;16.482;2022-11-15T08:43:33;99867.34;;;6.60;100.00
35519;BME280;21627;48.216;16.482;2022-11-15T08:46:00;99876.09;;;6.69;100.00
35519;BME280;21627;48.216;16.482;2022-11-15T08:48:28;99874.34;;;6.67;100.00
35519;BME280;21627;48.216;16.482;2022-11-15T08:50:56;99888.03;;;6.66;100.00
35519;BME280;21627;48.216;16.482;2022-11-15T08:53:24;99873.44;;;6.63;100.00
35519;BME280;21627;48.216;16.482;2022-11-15T08:55:51;99876.97;;;6.70;100.00
35519;BME280;21627;48.216;16.482;2022-11-15T08:58:18;99858.09;;;6.68;100.00
35519;BME280;21627;48.216;16.482;2022-11-15T09:00:45;99875.34;;;6.75;100.00
35519;BME280;21627;48.216;16.482;2022-11-15T09:03:12;99877.09;;;6.76;100.00
35519;BME280;21627;48.216;16.482;2022-11-15T09:05:39;99879.69;;;6.79;100.00
35519;BME280;21627;48.216;16.482;2022-11-15T09:08:07;99863.38;;;6.77;100.00
35519;BME280;21627;48.216;16.482;2022-11-15T09:10:54;99858.16;;;6.72;100.00
35519;BME280;21627;48.216;16.482;2022-11-15T09:13:21;99854.69;;;6.69;100.00
35519;BME280;21627;48.216;16.482;2022-11-15T09:15:49;99870.31;;;6.83;100.00
35519;BME280;21627;48.216;16.482;2022-11-15T09:18:16;99871.13;;;6.80;100.00
35519;BME280;21627;48.216;16.482;2022-11-15T09:20:43;99850.47;;;6.74;100.00
35519;BME280;21627;48.216;16.482;2022-11-15T09:23:10;99862.59;;;6.83;100.00
35519;BME280;21627;48.216;16.482;2022-11-15T09:25:37;99853.19;;;6.82;100.00
35519;BME280;21627;48.216;16.482;2022-11-15T09:28:07;99855.75;;;6.82;100.00
35519;BME280;21627;48.216;16.482;2022-11-15T09:30:34;99855.84;;;6.86;100.00
35519;BME280;21627;48.216;16.482;2022-11-15T09:33:12;99845.53;;;6.85;100.00
35519;BME280;21627;48.216;16.482;2022-11-15T09:35:39;99841.31;;;6.90;100.00
35519;BME280;21627;48.216;16.482;2022-11-15T09:38:08;99844.78;;;6.92;100.00
35519;BME280;21627;48.216;16.482;2022-11-15T09:40:37;99824.09;;;6.84;100.00
35519;BME280;21627;48.216;16.482;2022-11-15T09:49:00;99825.00;;;6.86;100.00
35519;BME280;21627;48.216;16.482;2022-11-15T09:51:43;99812.16;;;6.86;100.00
35519;BME280;21627;48.216;16.482;2022-11-15T09:54:33;99811.38;;;6.90;100.00
35519;BME280;21627;48.216;16.482;2022-11-15T09:57:32;99810.50;;;6.91;100.00
35519;BME280;21627;48.216;16.482;2022-11-15T10:00:27;99807.09;;;6.92;100.00
35519;BME280;21627;48.216;16.482;2022-11-15T10:03:29;99802.03;;;6.96;100.00
35519;BME280;21627;48.216;16.482;2022-11-15T10:06:02;99800.34;;;6.99;100.00
35519;BME280;21627;48.216;16.482;2022-11-15T10:09:00;99797.78;;;6.99;100.00
35519;BME280;21627;48.216;16.482;2022-11-15T10:11:32;99783.13;;;6.95;100.00
35519;BME280;21627;48.216;16.482;2022-11-15T10:14:25;99791.78;;;7.00;100.00
35519;BME280;21627;48.216;16.482;2022-11-15T10:20:02;99788.47;;;7.06;100.00
35519;BME280;21627;48.216;16.482;2022-11-15T10:22:58;99791.09;;;7.12;100.00
35519;BME280;21627;48.216;16.482;2022-11-15T10:25:35;99772.19;;;7.07;100.00
35519;BME280;21627;48.216;16.482;2022-11-15T10:30:49;99768.09;;;7.21;100.00
35519;BME280;21627;48.216;16.482;2022-11-15T10:36:16;99737.22;;;7.20;100.00
35519;BME280;21627;48.216;16.482;2022-11-15T10:44:28;99745.09;;;7.32;100.00
35519;BME280;21627;48.216;16.482;2022-11-15T10:49:29;99745.09;;;7.32;100.00
35519;BME280;21627;48.216;16.482;2022-11-15T10:57:32;99723.72;;;7.36;100.00
35519;BME280;21627;48.216;16.482;2022-11-15T11:00:25;99709.16;;;7.36;100.00
35519;BME280;21627;48.216;16.482;2022-11-15T11:05:38;99710.94;;;7.44;100.00
35519;BME280;21627;48.216;16.482;2022-11-15T11:10:39;99698.00;;;7.36;100.00
35519;BME280;21627;48.216;16.482;2022-11-15T11:13:38;99716.97;;;7.44;100.00
35519;BME280;21627;48.216;16.482;2022-11-15T11:28:33;99699.88;;;7.49;100.00
35519;BME280;21627;48.216;16.482;2022-11-15T11:34:04;99682.69;;;7.48;100.00
35519;BME280;21627;48.216;16.482;2022-11-15T11:36:49;99678.41;;;7.47;100.00
35519;BME280;21627;48.216;16.482;2022-11-15T11:48:48;99653.53;;;7.46;100.00
35519;BME280;21627;48.216;16.482;2022-11-15T11:51:28;99658.75;;;7.54;100.00
35519;BME280;21627;48.216;16.482;2022-11-15T11:54:05;99651.94;;;7.56;100.00
35519;BME280;21627;48.216;16.482;2022-11-15T11:56:39;99655.34;;;7.58;100.00
35519;BME280;21627;48.216;16.482;2022-11-15T12:01:44;99633.88;;;7.54;100.00
35519;BME280;21627;48.216;16.482;2022-11-15T12:04:20;99633.06;;;7.57;100.00
35519;BME280;21627;48.216;16.482;2022-11-15T12:07:25;99633.94;;;7.61;100.00
35519;BME280;21627;48.216;16.482;2022-11-15T12:10:03;99627.03;;;7.58;100.00
35519;BME280;21627;48.216;16.482;2022-11-15T12:13:13;99625.34;;;7.60;100.00
35519;BME280;21627;48.216;16.482;2022-11-15T12:15:57;99617.63;;;7.57;100.00
35519;BME280;21627;48.216;16.482;2022-11-15T12:18:25;99606.47;;;7.58;100.00
35519;BME280;21627;48.216;16.482;2022-11-15T12:21:01;99601.38;;;7.63;100.00
35519;BME280;21627;48.216;16.482;2022-11-15T12:23:48;99602.28;;;7.68;100.00
35519;BME280;21627;48.216;16.482;2022-11-15T12:26:28;99598.88;;;7.72;100.00
35519;BME280;21627;48.216;16.482;2022-11-15T12:29:03;99594.59;;;7.72;100.00
35519;BME280;21627;48.216;16.482;2022-11-15T12:31:39;99589.44;;;7.69;100.00
35519;BME280;21627;48.216;16.482;2022-11-15T12:36:50;99566.25;;;7.68;100.00
35519;BME280;21627;48.216;16.482;2022-11-15T12:39:18;99582.63;;;7.77;100.00
35519;BME280;21627;48.216;16.482;2022-11-15T12:47:26;99549.06;;;7.64;100.00
35519;BME280;21627;48.216;16.482;2022-11-15T12:49:53;99568.03;;;7.75;100.00
35519;BME280;21627;48.216;16.482;2022-11-15T12:52:21;99559.44;;;7.74;100.00
35519;BME280;21627;48.216;16.482;2022-11-15T12:54:58;99570.63;;;7.81;100.00
35519;BME280;21627;48.216;16.482;2022-11-15T12:57:33;99568.09;;;7.83;100.00
35519;BME280;21627;48.216;16.482;2022-11-15T13:02:41;99555.25;;;7.84;100.00
35519;BME280;21627;48.216;16.482;2022-11-15T13:10:28;99541.53;;;7.88;100.00
35519;BME280;21627;48.216;16.482;2022-11-15T13:13:06;99533.81;;;7.88;100.00
35519;BME280;21627;48.216;16.482;2022-11-15T13:15:56;99524.41;;;7.89;100.00
35519;BME280;21627;48.216;16.482;2022-11-15T13:18:37;99505.47;;;7.82;100.00
35519;BME280;21627;48.216;16.482;2022-11-15T13:21:26;99514.13;;;7.92;100.00
35519;BME280;21627;48.216;16.482;2022-11-15T13:24:15;99517.56;;;7.95;100.00
35519;BME280;21627;48.216;16.482;2022-11-15T13:26:43;99517.56;;;7.95;100.00
35519;BME280;21627;48.216;16.482;2022-11-15T13:29:18;99515.00;;;7.97;100.00
35519;BME280;21627;48.216;16.482;2022-11-15T13:31:48;99508.16;;;7.99;100.00
35519;BME280;21627;48.216;16.482;2022-11-15T13:34:31;99521.91;;;8.02;100.00
35519;BME280;21627;48.216;16.482;2022-11-15T13:37:28;99513.31;;;8.03;100.00
35519;BME280;21627;48.216;16.482;2022-11-15T13:40:23;99502.16;;;8.00;100.00
35519;BME280;21627;48.216;16.482;2022-11-15T13:42:51;99504.75;;;8.06;100.00
35519;BME280;21627;48.216;16.482;2022-11-15T13:45:19;99502.16;;;8.06;100.00
35519;BME280;21627;48.216;16.482;2022-11-15T13:47:56;99484.97;;;7.97;100.00
35519;BME280;21627;48.216;16.482;2022-11-15T13:50:30;99491.00;;;8.06;100.00
35519;BME280;21627;48.216;16.482;2022-11-15T13:53:03;99491.88;;;8.08;100.00
35519;BME280;21627;48.216;16.482;2022-11-15T13:55:31;99491.91;;;8.11;100.00
35519;BME280;21627;48.216;16.482;2022-11-15T13:58:03;99481.56;;;8.06;100.00
35519;BME280;21627;48.216;16.482;2022-11-15T14:00:43;99487.63;;;8.13;100.00
35519;BME280;21627;48.216;16.482;2022-11-15T14:03:25;99486.75;;;8.11;100.00
35519;BME280;21627;48.216;16.482;2022-11-15T14:06:17;99472.16;;;8.08;100.00
35519;BME280;21627;48.216;16.482;2022-11-15T14:11:34;99461.84;;;8.11;100.00
35519;BME280;21627;48.216;16.482;2022-11-15T14:14:14;99458.44;;;8.14;100.00
35519;BME280;21627;48.216;16.482;2022-11-15T14:16:58;99459.31;;;8.13;100.00
35519;BME280;21627;48.216;16.482;2022-11-15T14:22:27;99441.25;;;8.07;100.00
35519;BME280;21627;48.216;16.482;2022-11-15T14:25:18;99441.25;;;8.11;100.00
35519;BME280;21627;48.216;16.482;2022-11-15T14:30:57;99449.00;;;8.16;100.00
35519;BME280;21627;48.216;16.482;2022-11-15T14:33:34;99447.31;;;8.18;100.00
35519;BME280;21627;48.216;16.482;2022-11-15T14:38:38;99450.75;;;8.17;100.00
35519;BME280;21627;48.216;16.482;2022-11-15T14:41:05;99454.19;;;8.17;100.00
35519;BME280;21627;48.216;16.482;2022-11-15T14:43:32;99449.88;;;8.18;100.00
35519;BME280;21627;48.216;16.482;2022-11-15T14:45:59;99436.09;;;8.11;100.00
35519;BME280;21627;48.216;16.482;2022-11-15T14:48:27;99448.16;;;8.18;100.00
35519;BME280;21627;48.216;16.482;2022-11-15T14:50:54;99444.72;;;8.18;100.00
35519;BME280;21627;48.216;16.482;2022-11-15T14:53:21;99433.56;;;8.14;100.00
35519;BME280;21627;48.216;16.482;2022-11-15T14:55:54;99440.44;;;8.18;100.00
35519;BME280;21627;48.216;16.482;2022-11-15T14:58:23;99435.31;;;8.21;100.00
35519;BME280;21627;48.216;16.482;2022-11-15T15:00:50;99435.28;;;8.17;100.00
35519;BME280;21627;48.216;16.482;2022-11-15T15:03:18;99431.84;;;8.13;100.00
35519;BME280;21627;48.216;16.482;2022-11-15T15:05:45;99435.28;;;8.18;100.00
35519;BME280;21627;48.216;16.482;2022-11-15T15:08:12;99433.59;;;8.20;100.00
35519;BME280;21627;48.216;16.482;2022-11-15T15:10:43;99430.97;;;8.16;100.00
35519;BME280;21627;48.216;16.482;2022-11-15T15:13:17;99427.56;;;8.17;100.00